FXT55 EKBI-EKBI

Flight info

Callsign FXT55
Flight time N/A
Altitude 3000
Route LOKSA DCT GELBA
Aircraft C750/M-SBDE3FGHRWXY/S

Departure

Time 2025-10-03 12:06
Airport Billund Airport (EKBI)

Arrival

Time N/A
Airport Billund Airport (EKBI)
Time Latitude Longitude Altitude Speed Heading
2025-10-03 11:56 55.74343 9.14867 213 ft 0 kts 355°
2025-10-03 12:03 55.74269 9.14717 213 ft 25 kts 259°
2025-10-03 12:03 55.74076 9.14495 213 ft 10 kts 176°
2025-10-03 12:04 55.74030 9.15027 213 ft 86 kts 87°
2025-10-03 12:04 55.74126 9.18531 727 ft 171 kts 95°
2025-10-03 12:05 55.74172 9.23331 1795 ft 215 kts 96°
2025-10-03 12:05 55.74223 9.29208 3002 ft 257 kts 95°
2025-10-03 12:06 55.76137 9.34697 2931 ft 285 kts 29°
2025-10-03 12:06 55.79314 9.34418 2957 ft 284 kts 327°
2025-10-03 12:07 55.81632 9.29060 3019 ft 275 kts 294°
2025-10-03 12:07 55.83432 9.23085 2984 ft 271 kts 283°
2025-10-03 12:08 55.84540 9.13464 3000 ft 264 kts 274°
2025-10-03 12:09 55.85203 9.07070 2989 ft 261 kts 274°
2025-10-03 12:09 55.85531 9.03881 3012 ft 263 kts 273°
2025-10-03 12:09 55.86236 8.97492 3000 ft 261 kts 274°
2025-10-03 12:10 55.86956 8.91114 2998 ft 263 kts 274°
2025-10-03 12:10 55.87624 8.84762 2977 ft 262 kts 269°
2025-10-03 12:11 55.87769 8.78351 2971 ft 257 kts 264°
2025-10-03 12:11 55.87858 8.71987 2971 ft 257 kts 264°
2025-10-03 12:12 55.87505 8.62665 2907 ft 240 kts 231°
2025-10-03 12:13 55.85104 8.58804 2977 ft 232 kts 214°
2025-10-03 12:13 55.83838 8.57028 2954 ft 231 kts 212°
2025-10-03 12:13 55.80839 8.56731 2969 ft 226 kts 165°
2025-10-03 12:14 55.77876 8.58492 2975 ft 213 kts 163°
2025-10-03 12:14 55.75398 8.60042 2933 ft 178 kts 155°
2025-10-03 12:15 55.74515 8.64432 2989 ft 209 kts 103°
2025-10-03 12:15 55.74286 8.69586 2986 ft 203 kts 103°
2025-10-03 12:16 55.74126 8.74003 2956 ft 164 kts 104°
2025-10-03 12:17 55.73500 8.79802 2985 ft 162 kts 112°
2025-10-03 12:17 55.73112 8.83786 2982 ft 167 kts 101°
2025-10-03 12:17 55.73164 8.85852 2986 ft 169 kts 99°
2025-10-03 12:18 55.73219 8.87896 2997 ft 156 kts 99°
2025-10-03 12:18 55.73338 8.93044 2569 ft 141 kts 99°
2025-10-03 12:19 55.73472 8.96502 2179 ft 136 kts 99°
2025-10-03 12:19 55.73566 8.99713 1827 ft 125 kts 99°
2025-10-03 12:20 55.73657 9.02694 1466 ft 117 kts 98°
2025-10-03 12:20 55.73742 9.05644 1146 ft 123 kts 97°
2025-10-03 12:21 55.73838 9.08643 799 ft 121 kts 96°
2025-10-03 12:21 55.73932 9.11606 463 ft 118 kts 97°
2025-10-03 12:22 55.74012 9.14516 227 ft 108 kts 93°
2025-10-03 12:22 55.74063 9.15747 240 ft 92 kts 96°
2025-10-03 12:23 55.74035 9.19652 732 ft 103 kts 104°
2025-10-03 12:23 55.73978 9.22308 1599 ft 114 kts 105°
2025-10-03 12:24 55.74766 9.25426 1618 ft 206 kts 23°
2025-10-03 12:24 55.77497 9.23266 2804 ft 244 kts 297°
2025-10-03 12:25 55.78364 9.20649 3836 ft 246 kts 293°